Time;durP1;ratioP1;P1;durP2;ratioP2;P2;SDS_P1;SDS_P2;PMS_P1;PMS_P2;Temp;Humidity;BMP_temperature;BMP_pressure;BME280_temperature;BME280_humidity;BME280_pressure;Samples;Min_cycle;Max_cycle;Signal;HPM_P1;HPM_P2
2021/03/15 00:00:09;;;;;;;14.98;5.10;;;6.80;91.20;;;;;;5093093;28;20107;-77
2021/03/15 00:02:35;;;;;;;11.68;3.78;;;6.80;91.40;;;;;;5091331;28;20039;-78
2021/03/15 00:05:00;;;;;;;13.80;5.65;;;6.90;91.30;;;;;;5092518;28;20035;-77
2021/03/15 00:07:26;;;;;;;11.88;5.20;;;6.80;91.20;;;;;;5092667;28;20048;-76
2021/03/15 00:09:51;;;;;;;15.35;4.57;;;6.80;91.30;;;;;;5092480;28;20027;-78
2021/03/15 00:12:17;;;;;;;15.70;6.15;;;6.90;91.40;;;;;;5092602;28;20027;-77
2021/03/15 00:14:42;;;;;;;17.70;6.88;;;6.80;91.40;;;;;;5092383;28;20020;-77
2021/03/15 00:17:08;;;;;;;14.63;5.20;;;6.80;91.50;;;;;;5091260;28;20016;-77
2021/03/15 00:19:34;;;;;;;15.30;6.82;;;6.80;91.60;;;;;;5092566;28;20044;-77
2021/03/15 00:21:59;;;;;;;18.27;6.00;;;6.80;91.70;;;;;;5092668;28;20448;-78
2021/03/15 00:24:25;;;;;;;13.85;6.18;;;6.80;91.80;;;;;;5091666;28;20485;-78
2021/03/15 00:26:50;;;;;;;18.42;7.07;;;6.80;91.90;;;;;;5091270;28;20053;-78
2021/03/15 00:29:16;;;;;;;14.25;6.93;;;6.90;92.00;;;;;;5092819;28;20107;-78
2021/03/15 00:31:41;;;;;;;13.57;5.20;;;6.80;91.90;;;;;;5090896;28;20055;-78
2021/03/15 00:34:07;;;;;;;10.40;4.80;;;6.90;91.90;;;;;;5092337;28;20027;-78
2021/03/15 00:36:32;;;;;;;10.30;4.80;;;6.80;91.70;;;;;;5090971;28;20077;-77
2021/03/15 00:38:58;;;;;;;11.10;4.63;;;6.80;91.80;;;;;;5090832;28;20027;-78
2021/03/15 00:41:23;;;;;;;15.13;5.00;;;6.80;91.60;;;;;;5092241;28;20020;-79
2021/03/15 00:43:49;;;;;;;11.65;4.85;;;6.80;91.50;;;;;;5093302;28;20114;-79
2021/03/15 00:46:15;;;;;;;15.23;4.82;;;6.80;91.40;;;;;;5095099;28;20073;-78
2021/03/15 00:48:40;;;;;;;13.63;5.63;;;6.80;91.50;;;;;;5094966;28;20023;-77
2021/03/15 00:51:06;;;;;;;14.57;5.43;;;6.80;91.60;;;;;;5095046;28;20027;-78
2021/03/15 00:53:31;;;;;;;12.68;5.70;;;6.80;91.80;;;;;;5094951;28;20077;-78
2021/03/15 00:55:57;;;;;;;20.17;5.43;;;6.80;91.80;;;;;;5096156;28;20051;-78
2021/03/15 00:58:22;;;;;;;11.85;5.13;;;6.80;91.80;;;;;;5094926;28;20092;-78
2021/03/15 01:00:49;;;;;;;12.13;5.20;;;6.80;91.80;;;;;;5094746;28;20016;-78
2021/03/15 01:03:14;;;;;;;10.82;4.90;;;6.80;91.90;;;;;;5094879;28;20436;-78
2021/03/15 01:05:43;;;;;;;17.83;5.47;;;6.80;92.00;;;;;;5096122;28;20052;-78
2021/03/15 01:08:10;;;;;;;16.50;4.68;;;6.80;92.00;;;;;;5094743;28;20055;-77
2021/03/15 01:10:38;;;;;;;8.50;4.80;;;6.80;92.00;;;;;;5095701;28;20091;-77
2021/03/15 01:13:04;;;;;;;9.15;4.43;;;6.80;92.00;;;;;;5094411;28;20027;-76
2021/03/15 01:15:30;;;;;;;10.27;4.93;;;6.80;91.90;;;;;;5094678;28;20020;-77
2021/03/15 01:17:56;;;;;;;8.40;4.53;;;6.80;91.90;;;;;;5095654;28;20103;-77
2021/03/15 01:20:22;;;;;;;10.63;4.50;;;6.80;91.80;;;;;;5094640;28;20031;-77
2021/03/15 01:22:48;;;;;;;11.35;4.90;;;6.80;91.60;;;;;;5095504;28;20024;-77
2021/03/15 01:25:15;;;;;;;8.15;4.15;;;6.80;92.00;;;;;;5095667;28;20024;-76
2021/03/15 01:27:40;;;;;;;13.55;5.07;;;6.80;91.80;;;;;;5094317;28;20012;-77
2021/03/15 01:30:10;;;;;;;13.40;4.75;;;6.80;91.90;;;;;;5095397;28;20089;-77
2021/03/15 01:32:36;;;;;;;11.25;4.72;;;6.80;91.80;;;;;;5093889;28;20030;-76
2021/03/15 01:35:04;;;;;;;9.18;4.32;;;6.90;91.80;;;;;;5095396;28;20024;-76
2021/03/15 01:37:29;;;;;;;8.07;5.10;;;6.80;91.70;;;;;;5094105;28;20035;-77
2021/03/15 01:39:55;;;;;;;11.25;5.10;;;6.90;91.60;;;;;;5095572;28;20360;-78
2021/03/15 01:42:20;;;;;;;10.30;4.88;;;6.90;91.70;;;;;;5095484;28;20479;-77
2021/03/15 01:44:46;;;;;;;10.68;4.25;;;6.90;91.80;;;;;;5094021;28;20452;-75
2021/03/15 01:47:11;;;;;;;13.45;5.55;;;6.90;91.70;;;;;;5094397;28;20115;-75
2021/03/15 01:49:37;;;;;;;11.90;5.80;;;6.90;91.70;;;;;;5095616;28;20533;-76
2021/03/15 01:52:02;;;;;;;10.57;4.82;;;6.80;91.70;;;;;;5094958;28;20027;-76
2021/03/15 01:54:28;;;;;;;11.93;4.88;;;6.80;91.70;;;;;;5093737;28;20031;-76
2021/03/15 01:56:54;;;;;;;13.00;5.18;;;6.90;92.10;;;;;;5094961;28;20025;-76
2021/03/15 01:59:20;;;;;;;9.30;4.55;;;6.80;91.70;;;;;;5093682;28;20026;-75
2021/03/15 02:01:46;;;;;;;9.07;4.70;;;6.80;91.70;;;;;;5093646;28;20027;-77
2021/03/15 02:04:13;;;;;;;19.83;4.88;;;6.80;92.20;;;;;;5094891;28;20024;-77
2021/03/15 02:06:39;;;;;;;16.77;5.93;;;6.80;91.90;;;;;;5094853;28;20085;-77
2021/03/15 02:09:05;;;;;;;9.43;4.97;;;6.80;92.00;;;;;;5093207;28;20082;-77
2021/03/15 02:11:43;;;;;;;11.65;5.80;;;6.80;92.00;;;;;;5093544;28;20012;-77
2021/03/15 02:14:23;;;;;;;14.55;5.82;;;6.80;92.00;;;;;;5093241;28;20484;-77
2021/03/15 02:17:12;;;;;;;12.88;5.57;;;6.80;92.00;;;;;;5093140;28;20031;-78
2021/03/15 02:20:15;;;;;;;10.70;6.30;;;6.80;92.10;;;;;;5095494;28;20023;-79
2021/03/15 02:23:00;;;;;;;11.20;5.60;;;6.80;92.20;;;;;;5094073;28;20019;-79
2021/03/15 02:25:47;;;;;;;10.75;5.07;;;6.80;92.30;;;;;;5093418;28;20012;-81
2021/03/15 02:28:47;;;;;;;11.07;5.35;;;6.80;92.10;;;;;;5093304;28;20012;-79
2021/03/15 02:31:25;;;;;;;16.10;5.80;;;6.80;92.20;;;;;;5093158;28;20433;-79
2021/03/15 02:34:16;;;;;;;9.68;5.03;;;6.80;92.20;;;;;;5092851;28;20662;-77
2021/03/15 02:36:42;;;;;;;;;;;6.80;92.20;;;;;;5110516;28;20058;-78
2021/03/15 02:39:17;;;;;;;9.13;4.13;;;6.90;92.20;;;;;;5094092;28;19909;-78
2021/03/15 02:41:45;;;;;;;8.05;4.30;;;6.90;92.00;;;;;;5093012;28;20023;-79
2021/03/15 02:44:12;;;;;;;9.57;4.47;;;6.80;91.80;;;;;;5092551;28;20016;-78
2021/03/15 02:46:42;;;;;;;8.75;4.30;;;6.80;91.90;;;;;;5092830;28;20102;-77
2021/03/15 02:49:12;;;;;;;7.10;3.63;;;6.90;91.90;;;;;;5093924;28;20097;-77
2021/03/15 02:51:38;;;;;;;;;;;6.80;91.60;;;;;;5093196;28;20062;-77
2021/03/15 02:54:07;;;;;;;6.82;3.97;;;6.80;91.60;;;;;;5092517;28;19907;-78
2021/03/15 02:56:39;;;;;;;8.63;4.22;;;6.80;91.60;;;;;;5092425;28;20034;-77
2021/03/15 02:59:05;;;;;;;8.73;4.55;;;6.80;91.60;;;;;;5092384;28;20038;-77
2021/03/15 03:01:33;;;;;;;7.45;3.88;;;6.80;91.80;;;;;;5093841;28;20020;-76
2021/03/15 03:03:59;;;;;;;8.90;4.20;;;6.80;91.70;;;;;;5092344;28;20027;-80
2021/03/15 03:06:28;;;;;;;6.03;4.00;;;6.80;91.70;;;;;;5091732;28;20047;-79
2021/03/15 03:08:56;;;;;;;8.20;4.25;;;6.80;91.60;;;;;;5092376;28;20016;-79
2021/03/15 03:11:24;;;;;;;9.52;4.78;;;6.80;91.60;;;;;;5092443;28;20039;-79
2021/03/15 03:13:52;;;;;;;8.02;4.25;;;6.80;91.60;;;;;;5093230;28;20074;-79
2021/03/15 03:16:24;;;;;;;8.95;3.55;;;6.80;91.70;;;;;;5092244;28;20107;-79
2021/03/15 03:18:51;;;;;;;8.35;4.68;;;6.80;91.70;;;;;;5092324;28;20440;-80
2021/03/15 03:21:21;;;;;;;9.32;4.50;;;6.80;91.60;;;;;;5092067;28;20031;-80
2021/03/15 03:23:50;;;;;;;10.60;4.22;;;6.80;91.60;;;;;;5093976;28;20023;-80
2021/03/15 03:26:17;;;;;;;6.97;4.67;;;6.80;91.80;;;;;;5092396;28;20509;-81
2021/03/15 03:28:45;;;;;;;8.60;4.65;;;6.80;91.80;;;;;;5092240;28;20020;-80
2021/03/15 03:31:11;;;;;;;8.30;4.93;;;6.80;91.80;;;;;;5093510;28;20020;-79
2021/03/15 03:33:37;;;;;;;8.52;5.05;;;6.80;91.90;;;;;;5093402;28;20110;-79
2021/03/15 03:36:04;;;;;;;13.68;4.88;;;6.80;91.90;;;;;;5091809;28;20107;-80
2021/03/15 03:38:29;;;;;;;9.60;5.65;;;6.80;91.90;;;;;;5092968;28;20024;-78
2021/03/15 03:40:57;;;;;;;9.88;5.97;;;6.80;92.00;;;;;;5091590;28;20027;-77
2021/03/15 03:43:22;;;;;;;10.98;5.93;;;6.80;91.90;;;;;;5091450;28;20031;-76
2021/03/15 03:45:48;;;;;;;9.88;6.00;;;6.80;92.00;;;;;;5092999;28;20020;-78
2021/03/15 03:48:13;;;;;;;10.30;6.15;;;6.80;92.10;;;;;;5091408;28;20441;-77
2021/03/15 03:50:39;;;;;;;11.50;5.70;;;6.70;92.10;;;;;;5091645;28;20017;-77
2021/03/15 03:53:13;;;;;;;12.10;6.32;;;6.70;92.10;;;;;;5092311;28;20115;-77
2021/03/15 03:55:55;;;;;;;13.52;5.72;;;6.70;92.20;;;;;;5093017;28;20020;-77
2021/03/15 03:58:23;;;;;;;13.82;7.03;;;6.70;92.20;;;;;;5093257;28;20030;-77
2021/03/15 04:00:52;;;;;;;18.50;7.35;;;6.80;92.30;;;;;;5091415;28;20098;-77
2021/03/15 04:03:19;;;;;;;12.95;6.93;;;6.70;92.30;;;;;;5091491;28;20066;-77
2021/03/15 04:05:59;;;;;;;12.60;6.80;;;6.70;92.60;;;;;;5091100;28;20059;-78
2021/03/15 04:08:29;;;;;;;11.98;6.82;;;6.80;92.30;;;;;;5092777;28;20487;-77
2021/03/15 04:10:56;;;;;;;12.15;6.75;;;6.80;92.30;;;;;;5091130;28;20418;-78
2021/03/15 04:13:25;;;;;;;13.15;7.70;;;6.80;92.10;;;;;;5092790;28;20140;-78
2021/03/15 04:15:51;;;;;;;14.70;7.38;;;6.70;92.30;;;;;;5091543;28;20450;-77
2021/03/15 04:18:25;;;;;;;15.90;7.22;;;6.70;92.40;;;;;;5090444;28;20016;-77
2021/03/15 04:20:56;;;;;;;21.83;6.95;;;6.70;92.30;;;;;;5092150;28;20423;-77
2021/03/15 04:23:27;;;;;;;21.45;7.55;;;6.70;92.40;;;;;;5091166;28;20076;-77
2021/03/15 04:25:55;;;;;;;13.73;7.18;;;6.70;92.30;;;;;;5091109;28;20444;-77
2021/03/15 04:28:22;;;;;;;10.77;6.10;;;6.70;92.30;;;;;;5090883;28;20024;-76
2021/03/15 04:30:48;;;;;;;18.27;8.65;;;6.70;92.40;;;;;;5091043;28;20069;-77
2021/03/15 04:33:15;;;;;;;18.80;8.38;;;6.70;92.30;;;;;;5092189;28;20422;-78
2021/03/15 04:35:43;;;;;;;15.57;7.70;;;6.80;92.30;;;;;;5091006;28;20031;-77
2021/03/15 04:38:10;;;;;;;18.05;7.78;;;6.80;92.30;;;;;;5091068;28;20349;-77
2021/03/15 04:40:38;;;;;;;18.35;8.05;;;6.80;92.30;;;;;;5090981;28;20515;-77
2021/03/15 04:43:05;;;;;;;15.90;8.02;;;6.80;92.20;;;;;;5092060;28;20096;-77
2021/03/15 04:45:33;;;;;;;14.25;6.72;;;6.80;92.20;;;;;;5093025;28;20049;-76
2021/03/15 04:48:00;;;;;;;16.58;7.90;;;6.80;92.10;;;;;;5092243;28;20068;-77
2021/03/15 04:50:28;;;;;;;13.93;7.47;;;6.80;92.10;;;;;;5091384;28;20452;-75
2021/03/15 04:52:54;;;;;;;18.33;7.00;;;6.70;92.00;;;;;;5091022;28;20020;-76
2021/03/15 04:55:20;;;;;;;14.85;7.35;;;6.70;91.90;;;;;;5090894;28;20085;-77
2021/03/15 04:57:48;;;;;;;22.40;7.60;;;6.80;91.90;;;;;;5091157;28;20020;-76
2021/03/15 05:00:15;;;;;;;20.80;7.63;;;6.80;91.90;;;;;;5090714;28;20044;-76
2021/03/15 05:02:44;;;;;;;20.60;8.48;;;6.70;92.00;;;;;;5090729;28;20103;-76
2021/03/15 05:05:13;;;;;;;17.00;7.97;;;6.70;92.00;;;;;;5090606;28;20048;-77
2021/03/15 05:07:41;;;;;;;18.05;7.95;;;6.70;91.80;;;;;;5091943;28;20048;-77
2021/03/15 05:10:08;;;;;;;20.92;9.48;;;6.70;91.90;;;;;;5090451;28;20032;-78
2021/03/15 05:12:34;;;;;;;19.98;8.85;;;6.70;92.00;;;;;;5090646;28;20020;-77
2021/03/15 05:15:00;;;;;;;16.88;7.97;;;6.70;92.00;;;;;;5090446;28;20065;-77
2021/03/15 05:17:26;;;;;;;29.83;9.88;;;6.70;92.10;;;;;;5090750;28;20118;-77
2021/03/15 05:19:52;;;;;;;18.70;8.70;;;6.70;92.10;;;;;;5092086;28;20066;-77
2021/03/15 05:22:18;;;;;;;21.77;9.77;;;6.70;92.00;;;;;;5090448;28;20020;-77
2021/03/15 05:24:44;;;;;;;50.95;16.58;;;6.70;91.90;;;;;;5090531;28;20039;-77
2021/03/15 05:27:11;;;;;;;25.13;9.65;;;6.70;92.00;;;;;;5107301;28;20021;-78
2021/03/15 05:29:39;;;;;;;23.05;9.50;;;6.70;91.90;;;;;;5092583;28;20069;-78
2021/03/15 05:32:06;;;;;;;28.65;10.63;;;6.70;91.90;;;;;;5095426;28;20101;-78
2021/03/15 05:34:33;;;;;;;33.15;12.00;;;6.70;92.00;;;;;;5111366;28;20027;-78
2021/03/15 05:37:00;;;;;;;35.33;12.88;;;6.70;92.00;;;;;;5111295;28;20031;-78
2021/03/15 05:39:26;;;;;;;55.75;18.90;;;6.70;91.90;;;;;;5111326;28;20031;-77
2021/03/15 05:41:57;;;;;;;39.80;13.95;;;6.70;91.90;;;;;;5111178;28;20016;-78
2021/03/15 05:44:55;;;;;;;35.78;12.50;;;6.70;92.10;;;;;;5110974;28;20035;-77
2021/03/15 05:48:07;;;;;;;22.60;8.90;;;6.70;92.00;;;;;;5110913;28;20448;-77
2021/03/15 05:50:55;;;;;;;30.17;10.48;;;6.60;92.00;;;;;;5094056;28;20024;-77
2021/03/15 05:54:02;;;;;;;25.95;10.20;;;6.60;92.00;;;;;;5094857;28;20043;-77
2021/03/15 05:56:44;;;;;;;62.22;20.35;;;6.60;91.80;;;;;;5109940;28;20023;-78
2021/03/15 05:59:44;;;;;;;31.98;11.35;;;6.50;91.80;;;;;;5110632;28;20023;-78
2021/03/15 06:02:28;;;;;;;21.08;9.48;;;6.50;91.80;;;;;;5094870;28;20069;-78
2021/03/15 06:05:26;;;;;;;27.40;9.13;;;6.40;91.90;;;;;;5093636;28;20020;-78
2021/03/15 06:08:16;;;;;;;19.70;7.95;;;6.40;92.10;;;;;;5092605;28;20040;-78
2021/03/15 06:10:59;;;;;;;21.52;8.68;;;6.40;92.20;;;;;;5094161;28;20047;-77
2021/03/15 06:13:27;;;;;;;28.80;9.70;;;6.40;92.10;;;;;;5094713;28;20034;-78
2021/03/15 06:15:53;;;;;;;25.08;8.57;;;6.40;92.00;;;;;;5093228;28;20020;-78
2021/03/15 06:18:19;;;;;;;25.15;8.85;;;6.50;92.10;;;;;;5092938;28;20341;-78
2021/03/15 06:20:46;;;;;;;26.70;8.60;;;6.50;92.30;;;;;;5093126;28;20022;-79
2021/03/15 06:23:15;;;;;;;24.25;9.23;;;6.50;92.00;;;;;;5094015;28;20020;-78
2021/03/15 06:25:42;;;;;;;33.75;11.25;;;6.60;92.00;;;;;;5094093;28;20400;-78
2021/03/15 06:28:08;;;;;;;25.52;10.70;;;6.60;92.10;;;;;;5109646;28;20498;-78
2021/03/15 06:30:35;;;;;;;46.15;16.10;;;6.60;92.00;;;;;;5094159;28;20041;-78
2021/03/15 06:33:02;;;;;;;42.85;15.38;;;6.60;92.20;;;;;;5109542;28;20012;-78
2021/03/15 06:35:37;;;;;;;22.85;9.60;;;6.70;91.90;;;;;;5109857;28;20111;-78
2021/03/15 06:38:04;;;;;;;21.75;8.45;;;6.70;91.90;;;;;;5092535;28;20012;-78
2021/03/15 06:40:32;;;;;;;22.02;8.38;;;6.70;91.90;;;;;;5093308;28;20094;-78
2021/03/15 06:43:00;;;;;;;14.13;6.75;;;6.70;91.90;;;;;;5092600;28;20412;-78
2021/03/15 06:45:26;;;;;;;19.08;7.07;;;6.80;91.70;;;;;;5094368;28;20018;-78
2021/03/15 06:47:52;;;;;;;15.30;6.55;;;6.70;91.70;;;;;;5109619;28;20012;-78
2021/03/15 06:50:19;;;;;;;20.80;7.65;;;6.70;91.80;;;;;;5093272;28;20435;-78
2021/03/15 06:52:51;;;;;;;21.35;6.65;;;6.80;91.70;;;;;;5092277;28;20023;-79
2021/03/15 06:55:18;;;;;;;15.32;7.30;;;6.80;91.80;;;;;;5092017;28;20089;-77
2021/03/15 06:57:44;;;;;;;20.00;6.32;;;6.80;91.80;;;;;;5092428;28;20070;-78
2021/03/15 07:00:10;;;;;;;17.10;6.15;;;6.80;91.60;;;;;;5092091;28;20012;-77
2021/03/15 07:02:35;;;;;;;15.48;5.72;;;6.80;91.40;;;;;;5093813;28;20472;-77
2021/03/15 07:05:13;;;;;;;17.63;6.72;;;6.80;91.60;;;;;;5091965;28;20054;-77
2021/03/15 07:07:48;;;;;;;15.07;5.40;;;6.80;91.70;;;;;;5092002;28;20040;-78
2021/03/15 07:10:28;;;;;;;22.55;6.10;;;6.90;91.70;;;;;;5092103;28;20517;-77
2021/03/15 07:13:26;;;;;;;;;;;6.90;91.60;;;;;;5093906;28;20508;-78
2021/03/15 07:15:54;;;;;;;22.75;6.25;;;6.90;91.60;;;;;;5070112;28;19940;-78
2021/03/15 07:18:25;;;;;;;16.98;4.93;;;7.00;91.60;;;;;;5095408;28;20034;-78
2021/03/15 07:20:56;;;;;;;25.60;4.72;;;7.10;91.50;;;;;;5104777;28;20016;-77
2021/03/15 07:23:40;;;;;;;16.17;5.47;;;7.10;91.30;;;;;;5110840;28;20281;-77
2021/03/15 07:26:13;;;;;;;15.93;3.55;;;7.10;91.20;;;;;;5106163;28;20023;-76
2021/03/15 07:28:40;;;;;;;13.68;3.63;;;7.10;91.20;;;;;;5112490;28;20016;-76
2021/03/15 07:31:21;;;;;;;20.98;4.60;;;7.20;90.80;;;;;;5095266;28;20016;-77
2021/03/15 07:33:56;;;;;;;22.00;4.55;;;7.20;90.70;;;;;;5091909;28;20031;-76
2021/03/15 07:36:31;;;;;;;21.10;4.32;;;7.20;90.60;;;;;;5098721;28;20108;-78
2021/03/15 07:39:00;;;;;;;19.35;5.07;;;7.20;90.80;;;;;;5105549;28;20458;-77
2021/03/15 07:41:26;;;;;;;16.42;4.70;;;7.20;90.50;;;;;;5092870;28;20474;-77
2021/03/15 07:43:53;;;;;;;22.20;4.80;;;7.30;90.90;;;;;;5092969;28;20016;-77
2021/03/15 07:46:22;;;;;;;18.33;3.80;;;7.30;90.70;;;;;;5092642;28;20039;-77
2021/03/15 07:48:48;;;;;;;26.83;4.80;;;7.40;90.40;;;;;;5092846;28;20484;-77
2021/03/15 07:51:34;;;;;;;24.00;5.00;;;7.40;90.40;;;;;;5091319;28;20020;-79
2021/03/15 07:54:10;;;;;;;21.25;5.30;;;7.60;90.60;;;;;;5091631;28;20047;-78
2021/03/15 07:56:37;;;;;;;15.00;4.38;;;7.90;90.00;;;;;;5091576;28;20109;-77
2021/03/15 07:59:04;;;;;;;16.75;4.05;;;8.10;89.60;;;;;;5091391;28;20410;-76
2021/03/15 08:01:30;;;;;;;22.38;4.40;;;8.10;87.50;;;;;;5092744;28;20046;-78
2021/03/15 08:03:57;;;;;;;16.33;3.75;;;8.10;87.10;;;;;;5092677;28;20070;-77
2021/03/15 08:06:23;;;;;;;24.25;3.50;;;8.20;88.30;;;;;;5090455;28;20377;-77
2021/03/15 08:08:49;;;;;;;26.50;4.25;;;8.30;86.40;;;;;;5093426;28;20031;-77
2021/03/15 08:11:17;;;;;;;14.68;3.05;;;8.50;85.70;;;;;;5090663;28;20089;-77
2021/03/15 08:13:53;;;;;;;16.08;4.07;;;8.50;84.70;;;;;;5091083;28;20107;-77
2021/03/15 08:16:20;;;;;;;12.77;2.22;;;8.40;84.40;;;;;;5092465;28;20170;-76
2021/03/15 08:18:50;;;;;;;16.38;2.72;;;8.50;85.30;;;;;;5093380;28;20074;-77
2021/03/15 08:21:28;;;;;;;16.98;3.22;;;8.50;84.50;;;;;;5092940;28;20574;-78
2021/03/15 08:23:55;;;;;;;19.17;3.50;;;8.50;83.50;;;;;;5091700;28;20027;-77
2021/03/15 08:26:22;;;;;;;11.35;2.53;;;8.70;84.40;;;;;;5091567;28;20024;-77
2021/03/15 08:28:52;;;;;;;13.13;2.10;;;9.00;83.80;;;;;;5109086;28;20023;-77
2021/03/15 08:31:32;;;;;;;18.35;2.67;;;9.20;79.10;;;;;;5113086;28;20023;-77
2021/03/15 08:33:58;;;;;;;;;;;9.40;78.70;;;;;;5112418;28;20413;-77
2021/03/15 08:36:24;;;;;;;13.93;2.42;;;9.70;76.10;;;;;;5111703;28;19915;-76
2021/03/15 08:38:50;;;;;;;21.40;2.83;;;9.90;81.20;;;;;;5111615;28;20042;-76
2021/03/15 08:41:26;;;;;;;17.42;2.58;;;10.00;75.70;;;;;;5113553;28;20065;-78
2021/03/15 08:43:53;;;;;;;14.80;2.42;;;9.90;76.80;;;;;;5111817;28;20020;-76
2021/03/15 08:46:22;;;;;;;13.98;2.03;;;10.00;73.30;;;;;;5111614;28;20031;-76
2021/03/15 08:48:56;;;;;;;19.35;2.47;;;10.10;73.70;;;;;;5111802;28;20359;-77
2021/03/15 08:51:38;;;;;;;13.90;2.33;;;10.10;70.70;;;;;;5105727;28;20267;-77
2021/03/15 08:54:08;;;;;;;11.88;1.52;;;10.20;75.90;;;;;;5112065;28;20099;-77
2021/03/15 08:56:36;;;;;;;15.45;2.00;;;10.20;68.20;;;;;;5111081;28;20039;-77
2021/03/15 08:59:09;;;;;;;11.82;1.60;;;10.40;66.80;;;;;;5110637;28;20110;-77
2021/03/15 09:01:59;;;;;;;13.60;1.95;;;10.50;71.40;;;;;;5111134;28;20035;-77
2021/03/15 09:04:39;;;;;;;12.55;2.13;;;10.80;66.50;;;;;;5112854;28;20115;-77
2021/03/15 09:07:26;;;;;;;17.10;2.53;;;11.10;71.30;;;;;;5115090;28;20058;-78
2021/03/15 09:09:52;;;;;;;11.70;1.98;;;11.10;66.00;;;;;;5115166;28;20023;-76
2021/03/15 09:12:18;;;;;;;10.93;2.40;;;11.00;68.10;;;;;;5115037;28;20102;-77
2021/03/15 09:14:54;;;;;;;7.25;1.13;;;11.00;65.40;;;;;;5115099;28;20026;-77
2021/03/15 09:17:19;;;;;;;11.07;1.63;;;10.80;71.50;;;;;;5114752;28;20016;-77
2021/03/15 09:19:50;;;;;;;14.25;3.42;;;10.70;72.20;;;;;;5116518;28;20026;-77
2021/03/15 09:22:26;;;;;;;12.00;2.33;;;10.70;70.10;;;;;;5114646;28;20149;-77
2021/03/15 09:24:55;;;;;;;8.32;1.77;;;10.80;74.80;;;;;;5114845;28;20371;-77
2021/03/15 09:27:56;;;;;;;8.87;1.43;;;10.70;75.10;;;;;;5110503;27;20023;-78
2021/03/15 09:30:22;;;;;;;16.08;2.28;;;10.60;73.40;;;;;;5052705;28;20025;-76
2021/03/15 09:32:48;;;;;;;13.32;2.28;;;10.70;66.30;;;;;;5081779;28;20040;-76
2021/03/15 09:35:37;;;;;;;11.38;1.80;;;10.90;66.50;;;;;;5094396;28;20020;-76
2021/03/15 09:38:07;;;;;;;13.13;2.20;;;11.10;69.20;;;;;;5096134;28;20475;-76
2021/03/15 09:40:36;;;;;;;16.83;3.03;;;11.30;63.50;;;;;;5094501;28;20020;-75
2021/03/15 09:43:03;;;;;;;14.57;2.47;;;11.40;67.10;;;;;;5096039;28;20069;-76
2021/03/15 09:45:38;;;;;;;11.20;2.50;;;11.20;64.00;;;;;;5094629;28;20459;-77
2021/03/15 09:48:18;;;;;;;13.13;2.95;;;11.20;65.50;;;;;;5094409;28;20012;-76
2021/03/15 09:50:45;;;;;;;;;;;11.40;65.60;;;;;;5094525;28;20016;-76
2021/03/15 09:53:13;;;;;;;7.88;1.65;;;11.30;73.40;;;;;;5093932;28;19956;-76
2021/03/15 09:55:39;;;;;;;10.20;1.30;;;11.10;71.70;;;;;;5095468;28;20028;-76
2021/03/15 09:58:10;;;;;;;9.63;1.63;;;10.90;64.40;;;;;;5095376;28;20020;-77
2021/03/15 10:00:36;;;;;;;11.00;1.88;;;10.70;64.50;;;;;;5094078;28;20027;-77
2021/03/15 10:03:02;;;;;;;13.98;3.15;;;10.50;73.60;;;;;;5094019;28;20032;-77
2021/03/15 10:05:28;;;;;;;8.70;2.25;;;10.50;69.00;;;;;;5093882;28;20016;-76
2021/03/15 10:07:54;;;;;;;13.57;2.20;;;10.60;66.90;;;;;;5093713;28;20409;-77
2021/03/15 10:10:22;;;;;;;13.60;2.05;;;10.70;68.90;;;;;;5094931;28;20023;-77
2021/03/15 10:12:50;;;;;;;9.88;2.05;;;10.60;68.70;;;;;;5093403;28;20020;-76
2021/03/15 10:15:19;;;;;;;6.72;2.25;;;10.70;70.90;;;;;;5092189;28;20035;-77
2021/03/15 10:17:45;;;;;;;7.05;2.10;;;11.00;67.90;;;;;;5093331;28;20097;-76
2021/03/15 10:20:23;;;;;;;7.28;1.58;;;11.30;71.20;;;;;;5093266;28;20067;-77
2021/03/15 10:22:48;;;;;;;12.88;2.65;;;11.40;68.10;;;;;;5093325;28;20012;-77
2021/03/15 10:25:14;;;;;;;10.73;2.20;;;11.60;64.90;;;;;;5093104;28;20341;-77
2021/03/15 10:27:40;;;;;;;13.95;3.55;;;11.60;66.30;;;;;;5093191;28;20012;-77
2021/03/15 10:30:11;;;;;;;12.38;1.42;;;11.70;65.80;;;;;;5094548;28;20028;-77
2021/03/15 10:32:40;;;;;;;9.52;2.00;;;12.00;65.90;;;;;;5093363;28;20479;-76
2021/03/15 10:35:08;;;;;;;8.75;2.67;;;12.20;66.20;;;;;;5094884;28;20464;-76
2021/03/15 10:37:36;;;;;;;13.23;2.25;;;12.20;60.80;;;;;;5093461;28;20070;-76
2021/03/15 10:40:03;;;;;;;12.93;2.28;;;12.10;61.60;;;;;;5093186;28;20020;-78
2021/03/15 10:42:29;;;;;;;8.02;1.55;;;11.90;64.50;;;;;;5094031;28;20106;-76
2021/03/15 10:44:55;;;;;;;10.63;2.03;;;11.90;66.90;;;;;;5092970;28;20052;-76
2021/03/15 10:47:31;;;;;;;11.55;2.47;;;11.70;64.30;;;;;;5093959;28;20016;-76
2021/03/15 10:49:57;;;;;;;15.63;1.90;;;11.40;65.60;;;;;;5092769;28;20016;-77
2021/03/15 10:52:32;;;;;;;10.05;2.05;;;11.20;67.90;;;;;;5092446;28;20012;-77
2021/03/15 10:55:11;;;;;;;13.05;2.38;;;11.00;69.50;;;;;;5092645;28;20077;-77
2021/03/15 10:57:37;;;;;;;7.65;1.45;;;11.00;66.80;;;;;;5092408;28;20325;-77
2021/03/15 11:00:22;;;;;;;7.93;1.67;;;11.20;69.40;;;;;;5092610;28;20016;-77
2021/03/15 11:02:48;;;;;;;15.80;2.75;;;11.50;72.10;;;;;;5093854;28;20024;-77
2021/03/15 11:05:14;;;;;;;8.52;2.10;;;11.80;68.10;;;;;;5094197;28;20505;-76
2021/03/15 11:07:40;;;;;;;11.60;2.05;;;12.10;67.60;;;;;;5114058;28;20078;-79
2021/03/15 11:10:06;;;;;;;8.65;1.80;;;12.50;62.80;;;;;;5114145;28;20047;-78
2021/03/15 11:12:44;;;;;;;11.48;1.77;;;12.60;60.70;;;;;;5112754;28;20106;-76
2021/03/15 11:15:18;;;;;;;11.98;1.83;;;12.80;58.50;;;;;;5114127;28;20019;-76
2021/03/15 11:18:00;;;;;;;8.05;2.38;;;12.70;60.70;;;;;;5113723;28;20024;-76
2021/03/15 11:20:47;;;;;;;9.93;1.38;;;12.70;63.20;;;;;;5112367;28;20043;-78
2021/03/15 11:23:14;;;;;;;9.95;1.95;;;12.70;65.80;;;;;;5114020;28;20068;-77
2021/03/15 11:25:40;;;;;;;7.68;1.52;;;12.60;63.60;;;;;;5113825;28;20249;-77
2021/03/15 11:28:12;;;;;;;9.23;1.80;;;12.40;69.10;;;;;;5112026;28;20023;-77
2021/03/15 11:30:38;;;;;;;7.07;1.48;;;12.10;70.60;;;;;;5112193;28;20107;-77
2021/03/15 11:33:09;;;;;;;11.52;1.50;;;11.70;71.80;;;;;;5112460;28;20041;-77
2021/03/15 11:35:37;;;;;;;9.90;1.65;;;11.30;74.40;;;;;;5112103;28;20019;-78
2021/03/15 11:38:03;;;;;;;11.30;2.35;;;10.90;78.90;;;;;;5112350;28;20341;-76
2021/03/15 11:40:40;;;;;;;13.73;2.42;;;10.60;75.60;;;;;;5113069;28;20433;-77
2021/03/15 11:43:08;;;;;;;9.68;1.23;;;10.50;75.60;;;;;;5112155;28;20020;-78
2021/03/15 11:45:34;;;;;;;12.05;1.90;;;10.50;76.40;;;;;;5111832;28;20012;-78
2021/03/15 11:48:00;;;;;;;12.95;2.42;;;10.50;79.00;;;;;;5113541;28;20440;-77
2021/03/15 11:50:25;;;;;;;12.63;2.22;;;10.40;74.50;;;;;;5111736;28;20023;-77
2021/03/15 11:52:52;;;;;;;15.40;2.15;;;10.40;76.10;;;;;;5111964;28;20015;-77
2021/03/15 11:55:18;;;;;;;14.73;2.03;;;10.50;76.70;;;;;;5111751;28;20452;-78
2021/03/15 11:57:44;;;;;;;10.65;1.92;;;10.40;76.20;;;;;;5111900;28;20016;-77
2021/03/15 12:00:15;;;;;;;12.75;2.38;;;10.40;78.40;;;;;;5111906;28;20023;-77
2021/03/15 12:02:41;;;;;;;9.43;1.90;;;10.30;77.80;;;;;;5111490;28;20382;-78
2021/03/15 12:05:10;;;;;;;10.70;1.95;;;10.10;77.30;;;;;;5111813;28;20012;-78
2021/03/15 12:07:37;;;;;;;17.65;3.00;;;9.90;79.10;;;;;;5111288;28;20040;-78
2021/03/15 12:10:04;;;;;;;16.90;2.70;;;9.90;80.20;;;;;;5113009;28;20019;-77
2021/03/15 12:12:30;;;;;;;11.38;2.28;;;9.80;82.50;;;;;;5111407;28;20023;-77
2021/03/15 12:14:55;;;;;;;9.57;1.58;;;9.80;80.60;;;;;;5111616;28;20077;-77
2021/03/15 12:17:21;;;;;;;18.45;5.20;;;9.70;82.90;;;;;;5111446;28;20069;-77
2021/03/15 12:19:46;;;;;;;20.40;3.75;;;9.80;80.90;;;;;;5112951;28;20020;-77
2021/03/15 12:22:12;;;;;;;16.63;3.30;;;9.90;78.10;;;;;;5111496;28;20325;-77
2021/03/15 12:24:38;;;;;;;13.02;2.33;;;10.00;76.30;;;;;;5111467;28;20026;-77
2021/03/15 12:27:04;;;;;;;13.95;2.78;;;10.00;80.10;;;;;;5111365;28;20036;-77
2021/03/15 12:29:29;;;;;;;12.73;1.90;;;10.00;75.20;;;;;;5111126;28;20367;-77
2021/03/15 12:31:55;;;;;;;13.77;2.20;;;10.30;75.70;;;;;;5111416;28;20090;-77
2021/03/15 12:34:21;;;;;;;6.43;1.88;;;10.90;74.00;;;;;;5110958;28;20056;-77
2021/03/15 12:36:46;;;;;;;9.38;1.80;;;11.30;74.30;;;;;;5111315;28;20058;-76
2021/03/15 12:39:12;;;;;;;11.02;2.60;;;11.70;77.00;;;;;;5110685;28;20016;-77
2021/03/15 12:41:37;;;;;;;12.40;2.35;;;11.80;72.20;;;;;;5110998;28;20383;-77
2021/03/15 12:44:03;;;;;;;5.93;1.20;;;11.90;70.80;;;;;;5111082;28;20027;-77
2021/03/15 12:46:29;;;;;;;8.85;1.48;;;11.90;72.90;;;;;;5110902;28;20020;-78
2021/03/15 12:48:54;;;;;;;7.40;1.40;;;11.80;69.60;;;;;;5111231;28;20360;-77
2021/03/15 12:51:20;;;;;;;8.02;1.70;;;11.50;77.10;;;;;;5110997;28;20016;-78
2021/03/15 12:53:45;;;;;;;18.98;8.88;;;11.20;70.70;;;;;;5110934;28;20062;-76
2021/03/15 12:56:11;;;;;;;10.85;1.77;;;10.80;72.10;;;;;;5112891;28;20023;-77
2021/03/15 12:58:37;;;;;;;12.98;2.65;;;10.60;78.20;;;;;;5111063;28;20008;-78
2021/03/15 13:01:02;;;;;;;8.85;1.88;;;10.30;74.30;;;;;;5111278;28;20011;-76